Terminal Aerodrome Forecast
Issued by NWS Bismarck, ND

Home | Current Version | Previous Version | Graphics & Text | Print | Product List | Glossary On
Versions: 1 2 3 4 5 6 7 8 9 10 11 12 13 14 15 16 17 18 19 20 21 22 23 24 25 26
063
FTUS43 KBIS 231622 AAE
TAFBIS
TAF AMD
KBIS 231622Z 2316/2412 10012G23KT 6SM -SHRA VCTS OVC010CB
      TEMPO 2317/2320 4SM -TSRA BKN008CB
     FM232300 10011G20KT P6SM OVC008
     FM240600 10011G22KT P6SM OVC025
     FM240800 11011G21KT P6SM BKN045=

USA.gov is the U.S. government's official web portal to all federal, state and local government web resources and services.